createdAt,value
2018-12-22T00:00:48.434Z,1007.50
2018-12-22T00:01:48.454Z,1007.48
2018-12-22T00:02:48.478Z,1007.44
2018-12-22T00:03:48.503Z,1007.39
2018-12-22T00:04:48.521Z,1007.43
2018-12-22T00:05:48.543Z,1007.42
2018-12-22T00:06:48.569Z,1007.42
2018-12-22T00:07:48.592Z,1007.42
2018-12-22T00:08:48.612Z,1007.41
2018-12-22T00:09:48.638Z,1007.44
2018-12-22T00:10:48.655Z,1007.41
2018-12-22T00:11:48.680Z,1007.43
2018-12-22T00:12:48.701Z,1007.43
2018-12-22T00:13:48.728Z,1007.40
2018-12-22T00:14:48.745Z,1007.36
2018-12-22T00:15:48.770Z,1007.33
2018-12-22T00:16:48.791Z,1007.35
2018-12-22T00:17:48.813Z,1007.33
2018-12-22T00:18:48.835Z,1007.32
2018-12-22T00:19:48.858Z,1007.31
2018-12-22T00:20:48.880Z,1007.29
2018-12-22T00:21:48.904Z,1007.29
2018-12-22T00:22:48.925Z,1007.26
2018-12-22T00:23:48.949Z,1007.25
2018-12-22T00:24:48.971Z,1007.25
2018-12-22T00:25:48.992Z,1007.23
2018-12-22T00:26:49.015Z,1007.22
2018-12-22T00:27:49.041Z,1007.22
2018-12-22T00:28:49.063Z,1007.23
2018-12-22T00:29:49.083Z,1007.22
2018-12-22T00:30:49.103Z,1007.19
2018-12-22T00:31:49.126Z,1007.22
2018-12-22T00:32:49.150Z,1007.22
2018-12-22T00:33:49.172Z,1007.18
2018-12-22T00:34:49.195Z,1007.16
2018-12-22T00:35:49.217Z,1007.11
2018-12-22T00:36:49.239Z,1007.12
2018-12-22T00:37:49.262Z,1007.13
2018-12-22T00:38:49.283Z,1007.12
2018-12-22T00:39:49.310Z,1007.10
2018-12-22T00:40:49.330Z,1007.15
2018-12-22T00:41:49.352Z,1007.11
2018-12-22T00:42:49.374Z,1007.12
2018-12-22T00:43:49.397Z,1007.11
2018-12-22T00:44:49.420Z,1007.12
2018-12-22T00:45:49.442Z,1007.10
2018-12-22T00:46:49.466Z,1007.07
2018-12-22T00:47:49.487Z,1007.07
2018-12-22T00:48:49.512Z,1007.07
2018-12-22T00:49:49.534Z,1007.11
2018-12-22T00:50:49.552Z,1007.07
2018-12-22T00:51:49.587Z,1007.09
2018-12-22T00:52:49.598Z,1007.06
2018-12-22T00:53:49.620Z,1007.01
2018-12-22T00:54:49.643Z,1007.03
2018-12-22T00:55:49.665Z,1006.99
2018-12-22T00:56:49.694Z,1007.00
2018-12-22T00:57:49.709Z,1006.99
2018-12-22T00:58:49.731Z,1006.92
2018-12-22T00:59:49.754Z,1006.93
2018-12-22T01:00:49.778Z,1006.87
2018-12-22T01:01:49.802Z,1006.91
2018-12-22T01:02:49.821Z,1006.91
2018-12-22T01:03:49.844Z,1006.88
2018-12-22T01:04:49.866Z,1006.83
2018-12-22T01:05:49.890Z,1006.87
2018-12-22T01:06:49.911Z,1006.86
2018-12-22T01:07:49.934Z,1006.84
2018-12-22T01:08:49.955Z,1006.85
2018-12-22T01:09:49.981Z,1006.86
2018-12-22T01:10:50.001Z,1006.79
2018-12-22T01:11:50.022Z,1006.78
2018-12-22T01:12:50.048Z,1006.77
2018-12-22T01:13:50.069Z,1006.70
2018-12-22T01:14:50.090Z,1006.72
2018-12-22T01:15:50.112Z,1006.76
2018-12-22T01:16:50.135Z,1006.73
2018-12-22T01:17:50.157Z,1006.75
2018-12-22T01:18:50.178Z,1006.72
2018-12-22T01:19:50.201Z,1006.67
2018-12-22T01:20:50.224Z,1006.70
2018-12-22T01:21:50.246Z,1006.68
2018-12-22T01:22:50.272Z,1006.65
2018-12-22T01:23:50.292Z,1006.65
2018-12-22T01:24:50.317Z,1006.65
2018-12-22T01:25:50.337Z,1006.69
2018-12-22T01:26:50.357Z,1006.65
2018-12-22T01:27:50.383Z,1006.66
2018-12-22T01:28:50.405Z,1006.65
2018-12-22T01:29:50.429Z,1006.65
2018-12-22T01:30:50.448Z,1006.64
2018-12-22T01:31:50.470Z,1006.62
2018-12-22T01:32:50.493Z,1006.61
2018-12-22T01:33:50.513Z,1006.56
2018-12-22T01:34:50.536Z,1006.57
2018-12-22T01:35:50.561Z,1006.57
2018-12-22T01:36:50.583Z,1006.50
2018-12-22T01:37:50.604Z,1006.52
2018-12-22T01:38:50.625Z,1006.50
2018-12-22T01:39:50.742Z,1006.52
2018-12-22T01:40:50.671Z,1006.51
2018-12-22T01:41:50.695Z,1006.46
2018-12-22T01:42:50.719Z,1006.45
2018-12-22T01:43:50.738Z,1006.48
2018-12-22T01:44:50.761Z,1006.49
2018-12-22T01:45:50.785Z,1006.44
2018-12-22T01:46:50.806Z,1006.43
2018-12-22T01:47:50.828Z,1006.38
2018-12-22T01:48:50.850Z,1006.44
2018-12-22T01:49:50.874Z,1006.40
2018-12-22T01:50:50.898Z,1006.42
2018-12-22T01:51:50.918Z,1006.43
2018-12-22T01:52:50.943Z,1006.45
2018-12-22T01:53:50.967Z,1006.44
2018-12-22T01:54:50.985Z,1006.49
2018-12-22T01:55:51.009Z,1006.39
2018-12-22T01:56:51.029Z,1006.38
2018-12-22T01:57:51.054Z,1006.41
2018-12-22T01:58:51.073Z,1006.37
2018-12-22T01:59:51.096Z,1006.40
2018-12-22T02:00:51.125Z,1006.38
2018-12-22T02:01:51.141Z,1006.36
2018-12-22T02:02:51.164Z,1006.34
2018-12-22T02:03:51.184Z,1006.31
2018-12-22T02:04:51.249Z,1006.33
2018-12-22T02:05:51.232Z,1006.32
2018-12-22T02:06:51.255Z,1006.30
2018-12-22T02:07:51.275Z,1006.31
2018-12-22T02:08:51.297Z,1006.28
2018-12-22T02:09:51.321Z,1006.29
2018-12-22T02:10:51.346Z,1006.24
2018-12-22T02:11:51.364Z,1006.22
2018-12-22T02:12:51.388Z,1006.23
2018-12-22T02:13:51.413Z,1006.19
2018-12-22T02:14:51.431Z,1006.18
2018-12-22T02:15:51.452Z,1006.21
2018-12-22T02:16:51.476Z,1006.15
2018-12-22T02:17:51.501Z,1006.17
2018-12-22T02:18:51.521Z,1006.16
2018-12-22T02:19:51.547Z,1006.17
2018-12-22T02:20:51.567Z,1006.13
2018-12-22T02:21:51.586Z,1006.14
2018-12-22T02:22:51.610Z,1006.13
2018-12-22T02:23:51.631Z,1006.12
2018-12-22T02:24:51.657Z,1006.11
2018-12-22T02:25:51.678Z,1006.08
2018-12-22T02:26:51.701Z,1006.12
2018-12-22T02:27:51.719Z,1006.07
2018-12-22T02:28:56.600Z,1006.05
2018-12-22T02:29:51.765Z,1006.08
2018-12-22T02:30:51.787Z,1006.09
2018-12-22T02:31:51.814Z,1006.12
2018-12-22T02:32:51.834Z,1006.04
2018-12-22T02:33:51.855Z,1006.02
2018-12-22T02:34:51.879Z,1005.99
2018-12-22T02:35:51.901Z,1006.03
2018-12-22T02:36:51.923Z,1005.99
2018-12-22T02:37:51.944Z,1005.99
2018-12-22T02:38:51.968Z,1005.99
2018-12-22T02:39:51.994Z,1005.98
2018-12-22T02:40:52.015Z,1006.00
2018-12-22T02:41:52.037Z,1005.98
2018-12-22T02:42:52.055Z,1005.97
2018-12-22T02:43:52.077Z,1005.95
2018-12-22T02:44:52.100Z,1005.95
2018-12-22T02:45:52.127Z,1005.86
2018-12-22T02:46:52.148Z,1005.86
2018-12-22T02:47:52.171Z,1005.84
2018-12-22T02:48:52.188Z,1005.83
2018-12-22T02:49:52.214Z,1005.84
2018-12-22T02:50:52.234Z,1005.80
2018-12-22T02:51:52.256Z,1005.79
2018-12-22T02:52:52.278Z,1005.79
2018-12-22T02:53:52.300Z,1005.74
2018-12-22T02:54:52.322Z,1005.73
2018-12-22T02:55:52.347Z,1005.75
2018-12-22T02:56:52.367Z,1005.78
2018-12-22T02:57:52.390Z,1005.72
2018-12-22T02:58:52.411Z,1005.69
2018-12-22T02:59:52.437Z,1005.69
2018-12-22T03:00:52.582Z,1005.62
2018-12-22T03:01:52.485Z,1005.62
2018-12-22T03:02:52.501Z,1005.64
2018-12-22T03:03:52.524Z,1005.60
2018-12-22T03:04:52.546Z,1005.61
2018-12-22T03:05:52.569Z,1005.63
2018-12-22T03:06:52.590Z,1005.59
2018-12-22T03:07:52.613Z,1005.64
2018-12-22T03:08:52.636Z,1005.59
2018-12-22T03:09:52.660Z,1005.56
2018-12-22T03:10:52.681Z,1005.54
2018-12-22T03:11:52.701Z,1005.54
2018-12-22T03:12:52.736Z,1005.51
2018-12-22T03:13:52.747Z,1005.56
2018-12-22T03:14:52.770Z,1005.53
2018-12-22T03:15:52.791Z,1005.47
2018-12-22T03:16:52.815Z,1005.55
2018-12-22T03:17:52.835Z,1005.51
2018-12-22T03:18:52.856Z,1005.46
2018-12-22T03:19:52.879Z,1005.51
2018-12-22T03:20:52.903Z,1005.48
2018-12-22T03:21:52.926Z,1005.51
2018-12-22T03:22:52.947Z,1005.54
2018-12-22T03:23:52.969Z,1005.49
2018-12-22T03:24:52.992Z,1005.54
2018-12-22T03:25:53.014Z,1005.50
2018-12-22T03:26:53.035Z,1005.44
2018-12-22T03:27:53.057Z,1005.39
2018-12-22T03:28:53.131Z,1005.50
2018-12-22T03:29:53.103Z,1005.46
2018-12-22T03:30:53.128Z,1005.46
2018-12-22T03:31:53.162Z,1005.44
2018-12-22T03:32:53.170Z,1005.42
2018-12-22T03:33:53.193Z,1005.43
2018-12-22T03:34:53.216Z,1005.40
2018-12-22T03:35:53.236Z,1005.42
2018-12-22T03:36:53.263Z,1005.40
2018-12-22T03:37:53.279Z,1005.42
2018-12-22T03:38:53.303Z,1005.43
2018-12-22T03:39:53.327Z,1005.37
2018-12-22T03:40:53.347Z,1005.39
2018-12-22T03:41:53.368Z,1005.39
2018-12-22T03:42:53.389Z,1005.38
2018-12-22T03:43:53.414Z,1005.34
2018-12-22T03:44:53.435Z,1005.35
2018-12-22T03:45:53.458Z,1005.34
2018-12-22T03:46:53.480Z,1005.32
2018-12-22T03:47:53.501Z,1005.30
2018-12-22T03:48:53.525Z,1005.26
2018-12-22T03:49:53.546Z,1005.25
2018-12-22T03:50:53.570Z,1005.17
2018-12-22T03:51:53.591Z,1005.18
2018-12-22T03:52:53.616Z,1005.17
2018-12-22T03:53:53.636Z,1005.14
2018-12-22T03:54:53.659Z,1005.07
2018-12-22T03:55:53.681Z,1005.09
2018-12-22T03:56:53.704Z,1005.08
2018-12-22T03:57:53.728Z,1005.05
2018-12-22T03:58:53.746Z,1005.09
2018-12-22T03:59:53.769Z,1005.01
2018-12-22T04:00:53.790Z,1005.05
2018-12-22T04:01:53.816Z,1005.07
2018-12-22T04:02:53.837Z,1005.04
2018-12-22T04:03:53.861Z,1005.05
2018-12-22T04:04:53.879Z,1005.04
2018-12-22T04:05:53.903Z,1005.05
2018-12-22T04:06:53.924Z,1005.05
2018-12-22T04:07:53.943Z,1005.05
2018-12-22T04:08:53.969Z,1005.04
2018-12-22T04:09:53.990Z,1005.05
2018-12-22T04:10:54.017Z,1005.03
2018-12-22T04:11:54.032Z,1005.06
2018-12-22T04:12:54.057Z,1005.05
2018-12-22T04:13:54.078Z,1005.05
2018-12-22T04:14:54.097Z,1005.07
2018-12-22T04:15:54.122Z,1005.03
2018-12-22T04:16:54.141Z,1005.06
2018-12-22T04:17:54.171Z,1005.05
2018-12-22T04:18:54.327Z,1004.99
2018-12-22T04:19:54.214Z,1005.05
2018-12-22T04:20:54.232Z,1004.99
2018-12-22T04:21:54.251Z,1005.00
2018-12-22T04:22:54.276Z,1004.99
2018-12-22T04:23:54.297Z,1005.01
2018-12-22T04:24:54.317Z,1005.03
2018-12-22T04:25:54.339Z,1005.04
2018-12-22T04:26:54.362Z,1004.98
2018-12-22T04:27:54.390Z,1004.94
2018-12-22T04:28:54.404Z,1004.91
2018-12-22T04:29:54.429Z,1004.89
2018-12-22T04:30:54.452Z,1004.95
2018-12-22T04:31:54.471Z,1004.97
2018-12-22T04:32:54.496Z,1004.92
2018-12-22T04:33:54.517Z,1004.88
2018-12-22T04:34:54.537Z,1004.91
2018-12-22T04:35:54.644Z,1004.93
2018-12-22T04:36:54.580Z,1004.93
2018-12-22T04:37:54.610Z,1004.91
2018-12-22T04:38:54.631Z,1004.86
2018-12-22T04:39:54.649Z,1004.84
2018-12-22T04:40:54.668Z,1004.88
2018-12-22T04:41:54.690Z,1004.84
2018-12-22T04:42:54.710Z,1004.84
2018-12-22T04:43:54.737Z,1004.82
2018-12-22T04:44:54.755Z,1004.86
2018-12-22T04:45:54.777Z,1004.84
2018-12-22T04:46:54.800Z,1004.82
2018-12-22T04:47:54.822Z,1004.77
2018-12-22T04:48:54.846Z,1004.77
2018-12-22T04:49:54.866Z,1004.86
2018-12-22T04:50:54.891Z,1004.79
2018-12-22T04:51:54.913Z,1004.78
2018-12-22T04:52:54.934Z,1004.83
2018-12-22T04:53:54.954Z,1004.83
2018-12-22T04:54:54.976Z,1004.75
2018-12-22T04:55:54.999Z,1004.75
2018-12-22T04:56:55.021Z,1004.73
2018-12-22T04:57:55.043Z,1004.71
2018-12-22T04:58:55.064Z,1004.70
2018-12-22T04:59:55.083Z,1004.73
2018-12-22T05:00:55.106Z,1004.69
2018-12-22T05:01:55.128Z,1004.70
2018-12-22T05:02:55.148Z,1004.73
2018-12-22T05:03:55.278Z,1004.66
2018-12-22T05:04:55.193Z,1004.66
2018-12-22T05:05:55.219Z,1004.58
2018-12-22T05:06:55.237Z,1004.62
2018-12-22T05:07:55.260Z,1004.58
2018-12-22T05:08:55.281Z,1004.58
2018-12-22T05:09:55.304Z,1004.56
2018-12-22T05:10:55.326Z,1004.57
2018-12-22T05:11:55.375Z,1004.52
2018-12-22T05:12:55.368Z,1004.55
2018-12-22T05:13:55.390Z,1004.53
2018-12-22T05:14:55.411Z,1004.55
2018-12-22T05:15:55.432Z,1004.55
2018-12-22T05:16:55.458Z,1004.55
2018-12-22T05:17:55.481Z,1004.57
2018-12-22T05:18:55.498Z,1004.62
2018-12-22T05:19:55.518Z,1004.57
2018-12-22T05:20:55.540Z,1004.56
2018-12-22T05:21:55.567Z,1004.56
2018-12-22T05:22:55.591Z,1004.58
2018-12-22T05:23:55.616Z,1004.55
2018-12-22T05:24:55.631Z,1004.53
2018-12-22T05:25:55.653Z,1004.57
2018-12-22T05:26:55.671Z,1004.49
2018-12-22T05:27:55.719Z,1004.61
2018-12-22T05:28:55.717Z,1004.57
2018-12-22T05:29:55.738Z,1004.56
2018-12-22T05:30:55.762Z,1004.53
2018-12-22T05:31:55.785Z,1004.47
2018-12-22T05:32:55.802Z,1004.49
2018-12-22T05:33:55.825Z,1004.47
2018-12-22T05:34:55.853Z,1004.43
2018-12-22T05:35:55.867Z,1004.44
2018-12-22T05:36:55.890Z,1004.44
2018-12-22T05:37:55.913Z,1004.47
2018-12-22T05:38:55.932Z,1004.47
2018-12-22T05:39:55.955Z,1004.49
2018-12-22T05:40:55.977Z,1004.45
2018-12-22T05:41:56.001Z,1004.44
2018-12-22T05:42:56.023Z,1004.43
2018-12-22T05:43:56.044Z,1004.45
2018-12-22T05:44:56.076Z,1004.42
2018-12-22T05:45:56.086Z,1004.39
2018-12-22T05:46:56.108Z,1004.42
2018-12-22T05:47:56.129Z,1004.42
2018-12-22T05:48:56.149Z,1004.43
2018-12-22T05:49:56.172Z,1004.40
2018-12-22T05:50:56.195Z,1004.44
2018-12-22T05:51:56.216Z,1004.41
2018-12-22T05:52:56.238Z,1004.44
2018-12-22T05:53:56.262Z,1004.43
2018-12-22T05:54:56.281Z,1004.47
2018-12-22T05:55:56.308Z,1004.48
2018-12-22T05:56:56.327Z,1004.49
2018-12-22T05:57:56.347Z,1004.46
2018-12-22T05:58:56.374Z,1004.45
2018-12-22T06:00:00.453Z,1004.46
2018-12-22T06:00:56.415Z,1004.49
2018-12-22T06:01:56.438Z,1004.45
2018-12-22T06:02:56.462Z,1004.33
2018-12-22T06:03:56.478Z,1004.46
2018-12-22T06:04:56.500Z,1004.48
2018-12-22T06:05:56.523Z,1004.42
2018-12-22T06:06:56.545Z,1004.49
2018-12-22T06:07:56.569Z,1004.47
2018-12-22T06:08:56.589Z,1004.46
2018-12-22T06:09:56.614Z,1004.45
2018-12-22T06:10:56.636Z,1004.44
2018-12-22T06:11:56.653Z,1004.44
2018-12-22T06:12:56.677Z,1004.44
2018-12-22T06:13:56.699Z,1004.48
2018-12-22T06:14:56.724Z,1004.43
2018-12-22T06:15:56.744Z,1004.41
2018-12-22T06:16:56.766Z,1004.46
2018-12-22T06:17:56.785Z,1004.41
2018-12-22T06:18:56.806Z,1004.43
2018-12-22T06:19:56.828Z,1004.46
2018-12-22T06:20:56.851Z,1004.39
2018-12-22T06:21:56.876Z,1004.43
2018-12-22T06:22:56.896Z,1004.40
2018-12-22T06:23:56.919Z,1004.32
2018-12-22T06:24:56.941Z,1004.32
2018-12-22T06:25:56.965Z,1004.36
2018-12-22T06:26:56.983Z,1004.34
2018-12-22T06:27:57.005Z,1004.36
2018-12-22T06:28:57.028Z,1004.40
2018-12-22T06:29:57.048Z,1004.40
2018-12-22T06:30:57.074Z,1004.34
2018-12-22T06:31:57.092Z,1004.35
2018-12-22T06:32:57.116Z,1004.32
2018-12-22T06:33:57.138Z,1004.32
2018-12-22T06:34:57.159Z,1004.35
2018-12-22T06:35:57.179Z,1004.31
2018-12-22T06:36:57.204Z,1004.40
2018-12-22T06:37:57.225Z,1004.32
2018-12-22T06:38:57.251Z,1004.32
2018-12-22T06:39:57.268Z,1004.26
2018-12-22T06:40:57.290Z,1004.32
2018-12-22T06:41:57.314Z,1004.33
2018-12-22T06:42:57.339Z,1004.33
2018-12-22T06:43:57.358Z,1004.30
2018-12-22T06:44:57.379Z,1004.27
2018-12-22T06:45:57.403Z,1004.30
2018-12-22T06:46:57.424Z,1004.32
2018-12-22T06:47:57.443Z,1004.29
2018-12-22T06:48:57.468Z,1004.30
2018-12-22T06:49:57.490Z,1004.23
2018-12-22T06:50:57.509Z,1004.26
2018-12-22T06:51:57.536Z,1004.28
2018-12-22T06:52:57.556Z,1004.21
2018-12-22T06:53:57.580Z,1004.25
2018-12-22T06:54:57.600Z,1004.22
2018-12-22T06:55:57.620Z,1004.26
2018-12-22T06:56:57.646Z,1004.23
2018-12-22T06:57:57.665Z,1004.25
2018-12-22T06:58:57.686Z,1004.20
2018-12-22T06:59:57.710Z,1004.25
2018-12-22T07:00:57.732Z,1004.26
2018-12-22T07:01:57.755Z,1004.25
2018-12-22T07:02:57.777Z,1004.19
2018-12-22T07:03:57.797Z,1004.17
2018-12-22T07:04:57.819Z,1004.18
2018-12-22T07:05:57.843Z,1004.22
2018-12-22T07:06:57.867Z,1004.22
2018-12-22T07:07:57.886Z,1004.22
2018-12-22T07:08:57.909Z,1004.27
2018-12-22T07:09:57.931Z,1004.23
2018-12-22T07:10:57.958Z,1004.24
2018-12-22T07:11:57.982Z,1004.22
2018-12-22T07:12:57.996Z,1004.22
2018-12-22T07:13:58.023Z,1004.23
2018-12-22T07:14:58.040Z,1004.18
2018-12-22T07:15:58.061Z,1004.24
2018-12-22T07:16:58.086Z,1004.24
2018-12-22T07:17:58.109Z,1004.23
2018-12-22T07:18:58.128Z,1004.22
2018-12-22T07:19:58.150Z,1004.22
2018-12-22T07:20:58.173Z,1004.24
2018-12-22T07:21:58.197Z,1004.25
2018-12-22T07:22:58.215Z,1004.17
2018-12-22T07:23:58.239Z,1004.23
2018-12-22T07:24:58.262Z,1004.20
2018-12-22T07:25:58.283Z,1004.20
2018-12-22T07:26:58.311Z,1004.22
2018-12-22T07:27:58.330Z,1004.10
2018-12-22T07:28:58.349Z,1004.24
2018-12-22T07:29:58.370Z,1004.18
2018-12-22T07:30:58.392Z,1004.19
2018-12-22T07:31:58.416Z,1004.16
2018-12-22T07:32:58.438Z,1004.14
2018-12-22T07:33:58.463Z,1004.17
2018-12-22T07:34:58.481Z,1004.13
2018-12-22T07:35:58.502Z,1004.06
2018-12-22T07:36:58.528Z,1004.11
2018-12-22T07:37:58.548Z,1004.12
2018-12-22T07:38:58.572Z,1004.14
2018-12-22T07:39:58.592Z,1004.08
2018-12-22T07:40:58.615Z,1004.11
2018-12-22T07:41:58.636Z,1004.09
2018-12-22T07:42:58.659Z,1004.13
2018-12-22T07:43:58.687Z,1003.97
2018-12-22T07:44:58.701Z,1004.13
2018-12-22T07:45:58.725Z,1004.14
2018-12-22T07:46:58.748Z,1004.19
2018-12-22T07:47:58.771Z,1004.13
2018-12-22T07:48:58.791Z,1004.15
2018-12-22T07:49:58.814Z,1004.19
2018-12-22T07:50:58.834Z,1004.21
2018-12-22T07:51:58.855Z,1004.17
2018-12-22T07:52:58.880Z,1004.18
2018-12-22T07:53:58.901Z,1004.15
2018-12-22T07:54:58.928Z,1004.13
2018-12-22T07:55:58.947Z,1004.07
2018-12-22T07:56:58.968Z,1004.08
2018-12-22T07:57:59.559Z,1004.07
2018-12-22T07:58:59.017Z,1004.09
2018-12-22T07:59:59.035Z,1004.05
2018-12-22T08:00:59.058Z,1004.03
2018-12-22T08:01:59.081Z,1004.04
2018-12-22T08:02:59.104Z,1004.09
2018-12-22T08:03:59.127Z,1004.06
2018-12-22T08:04:59.146Z,1004.05
2018-12-22T08:05:59.168Z,1004.05
2018-12-22T08:06:59.190Z,1004.07
2018-12-22T08:07:59.218Z,1004.06
2018-12-22T08:08:59.237Z,1004.02
2018-12-22T08:09:59.262Z,1004.03
2018-12-22T08:10:59.278Z,1004.06
2018-12-22T08:11:59.305Z,1004.07
2018-12-22T08:12:59.323Z,1004.08
2018-12-22T08:13:59.347Z,1004.05
2018-12-22T08:14:59.368Z,1004.05
2018-12-22T08:15:59.390Z,1004.07
2018-12-22T08:16:59.414Z,1004.02
2018-12-22T08:17:59.437Z,1004.06
2018-12-22T08:18:59.458Z,1004.04
2018-12-22T08:19:59.481Z,1003.99
2018-12-22T08:20:59.502Z,1003.97
2018-12-22T08:21:59.526Z,1003.98
2018-12-22T08:22:59.545Z,1004.03
2018-12-22T08:23:59.568Z,1003.97
2018-12-22T08:24:59.591Z,1003.97
2018-12-22T08:25:59.615Z,1003.97
2018-12-22T08:26:59.642Z,1004.00
2018-12-22T08:27:59.658Z,1003.96
2018-12-22T08:28:59.679Z,1003.99
2018-12-22T08:29:59.704Z,1004.04
2018-12-22T08:30:59.725Z,1003.95
2018-12-22T08:31:59.750Z,1003.92
2018-12-22T08:32:59.776Z,1003.94
2018-12-22T08:33:59.797Z,1003.93
2018-12-22T08:34:59.813Z,1003.94
2018-12-22T08:35:59.838Z,1003.95
2018-12-22T08:36:59.858Z,1003.92
2018-12-22T08:37:59.884Z,1003.98
2018-12-22T08:38:59.946Z,1003.93
2018-12-22T08:39:59.926Z,1003.96
2018-12-22T08:40:59.947Z,1003.90
2018-12-22T08:41:59.971Z,1003.97
2018-12-22T08:42:59.995Z,1003.98
2018-12-22T08:44:00.015Z,1003.97
2018-12-22T08:45:00.047Z,1003.95
2018-12-22T08:46:00.060Z,1003.94
2018-12-22T08:47:00.149Z,1003.93
2018-12-22T08:48:00.105Z,1003.88
2018-12-22T08:49:00.126Z,1003.89
2018-12-22T08:50:08.779Z,1003.90
2018-12-22T08:51:00.172Z,1003.86
2018-12-22T08:52:00.199Z,1003.84
2018-12-22T08:53:00.216Z,1003.87
2018-12-22T08:54:00.245Z,1003.90
2018-12-22T08:55:00.261Z,1003.87
2018-12-22T08:56:00.285Z,1003.81
2018-12-22T08:57:00.305Z,1003.77
2018-12-22T08:58:00.327Z,1003.81
2018-12-22T08:59:00.351Z,1003.79
2018-12-22T09:00:00.371Z,1003.84
2018-12-22T09:01:00.393Z,1003.83
2018-12-22T09:02:00.420Z,1003.88
2018-12-22T09:03:00.438Z,1003.88
2018-12-22T09:04:00.462Z,1003.83
2018-12-22T09:05:00.497Z,1003.86
2018-12-22T09:06:00.507Z,1003.81
2018-12-22T09:07:00.526Z,1003.83
2018-12-22T09:08:00.550Z,1003.82
2018-12-22T09:09:00.576Z,1003.84
2018-12-22T09:10:00.594Z,1003.86
2018-12-22T09:11:00.615Z,1003.86
2018-12-22T09:12:00.638Z,1003.81
2018-12-22T09:13:00.660Z,1003.84
2018-12-22T09:14:00.685Z,1003.81
2018-12-22T09:15:00.707Z,1003.85
2018-12-22T09:16:00.727Z,1003.79
2018-12-22T09:17:00.753Z,1003.81
2018-12-22T09:18:00.773Z,1003.80
2018-12-22T09:19:00.795Z,1003.73
2018-12-22T09:20:00.821Z,1003.76
2018-12-22T09:21:00.841Z,1003.73
2018-12-22T09:22:00.866Z,1003.75
2018-12-22T09:23:00.890Z,1003.70
2018-12-22T09:24:00.906Z,1003.70
2018-12-22T09:25:00.930Z,1003.66
2018-12-22T09:26:00.952Z,1003.64
2018-12-22T09:27:00.977Z,1003.68
2018-12-22T09:28:00.996Z,1003.64
2018-12-22T09:29:01.018Z,1003.60
2018-12-22T09:30:01.044Z,1003.63
2018-12-22T09:31:01.203Z,1003.60
2018-12-22T09:32:01.090Z,1003.56
2018-12-22T09:33:01.111Z,1003.52
2018-12-22T09:34:01.132Z,1003.55
2018-12-22T09:35:01.158Z,1003.55
2018-12-22T09:36:01.177Z,1003.54
2018-12-22T09:37:01.198Z,1003.58
2018-12-22T09:38:01.222Z,1003.49
2018-12-22T09:39:01.246Z,1003.54
2018-12-22T09:40:01.271Z,1003.60
2018-12-22T09:41:01.292Z,1003.55
2018-12-22T09:42:01.314Z,1003.64
2018-12-22T09:43:01.334Z,1003.63
2018-12-22T09:44:01.355Z,1003.60
2018-12-22T09:45:01.379Z,1003.68
2018-12-22T09:46:01.404Z,1003.63
2018-12-22T09:47:01.423Z,1003.60
2018-12-22T09:48:01.454Z,1003.65
2018-12-22T09:49:01.467Z,1003.64
2018-12-22T09:50:01.490Z,1003.64
2018-12-22T09:51:01.512Z,1003.58
2018-12-22T09:52:01.535Z,1003.61
2018-12-22T09:53:01.559Z,1003.58
2018-12-22T09:54:01.579Z,1003.56
2018-12-22T09:55:01.608Z,1003.62
2018-12-22T09:56:01.624Z,1003.58
2018-12-22T09:57:01.654Z,1003.56
2018-12-22T09:58:01.669Z,1003.57
2018-12-22T09:59:01.691Z,1003.52
2018-12-22T10:00:01.717Z,1003.54
2018-12-22T10:01:09.107Z,1003.54
2018-12-22T10:02:01.764Z,1003.54
2018-12-22T10:03:01.781Z,1003.53
2018-12-22T10:04:01.920Z,1003.53
2018-12-22T10:05:01.830Z,1003.52
2018-12-22T10:06:01.853Z,1003.49
2018-12-22T10:07:01.876Z,1003.53
2018-12-22T10:08:01.897Z,1003.51
2018-12-22T10:09:01.922Z,1003.50
2018-12-22T10:10:01.943Z,1003.51
2018-12-22T10:11:01.962Z,1003.51
2018-12-22T10:12:01.985Z,1003.50
2018-12-22T10:13:02.014Z,1003.46
2018-12-22T10:14:02.033Z,1003.50
2018-12-22T10:15:02.053Z,1003.50
2018-12-22T10:16:02.077Z,1003.51
2018-12-22T10:17:02.100Z,1003.55
2018-12-22T10:18:02.124Z,1003.52
2018-12-22T10:19:02.147Z,1003.51
2018-12-22T10:20:02.165Z,1003.53
2018-12-22T10:21:02.189Z,1003.52
2018-12-22T10:22:02.211Z,1003.51
2018-12-22T10:23:02.231Z,1003.52
2018-12-22T10:24:02.257Z,1003.45
2018-12-22T10:25:02.283Z,1003.48
2018-12-22T10:26:02.301Z,1003.43
2018-12-22T10:27:02.326Z,1003.43
2018-12-22T10:28:02.349Z,1003.44
2018-12-22T10:29:02.372Z,1003.41
2018-12-22T10:30:02.392Z,1003.43
2018-12-22T10:31:02.417Z,1003.45
2018-12-22T10:32:02.441Z,1003.41
2018-12-22T10:33:02.464Z,1003.48
2018-12-22T10:34:02.485Z,1003.48
2018-12-22T10:35:02.504Z,1003.47
2018-12-22T10:36:02.527Z,1003.47
2018-12-22T10:37:02.552Z,1003.48
2018-12-22T10:38:02.574Z,1003.49
2018-12-22T10:39:02.606Z,1003.49
2018-12-22T10:40:02.622Z,1003.49
2018-12-22T10:41:02.642Z,1003.52
2018-12-22T10:42:02.667Z,1003.52
2018-12-22T10:43:02.690Z,1003.47
2018-12-22T10:44:02.713Z,1003.48
2018-12-22T10:45:02.734Z,1003.51
2018-12-22T10:46:02.758Z,1003.52
2018-12-22T10:47:02.782Z,1003.53
2018-12-22T10:48:02.800Z,1003.51
2018-12-22T10:49:02.827Z,1003.51
2018-12-22T10:50:02.847Z,1003.50
2018-12-22T10:51:02.873Z,1003.47
2018-12-22T10:52:02.895Z,1003.46
2018-12-22T10:53:03.028Z,1003.47
2018-12-22T10:54:02.939Z,1003.47
2018-12-22T10:55:02.962Z,1003.44
2018-12-22T10:56:02.986Z,1003.46
2018-12-22T10:57:04.174Z,1003.47
2018-12-22T10:58:03.030Z,1003.45
2018-12-22T10:59:03.058Z,1003.45
2018-12-22T11:00:03.075Z,1003.44
2018-12-22T11:01:03.096Z,1003.43
2018-12-22T11:02:03.124Z,1003.41
2018-12-22T11:03:03.145Z,1003.39
2018-12-22T11:04:03.164Z,1003.41
2018-12-22T11:05:03.189Z,1003.37
2018-12-22T11:06:03.210Z,1003.40
2018-12-22T11:07:03.234Z,1003.40
2018-12-22T11:08:03.257Z,1003.41
2018-12-22T11:09:03.278Z,1003.41
2018-12-22T11:10:03.304Z,1003.40
2018-12-22T11:11:03.324Z,1003.38
2018-12-22T11:12:03.349Z,1003.40
2018-12-22T11:13:03.372Z,1003.38
2018-12-22T11:14:03.393Z,1003.32
2018-12-22T11:15:03.415Z,1003.36
2018-12-22T11:16:03.444Z,1003.34
2018-12-22T11:17:03.463Z,1003.32
2018-12-22T11:18:03.483Z,1003.33
2018-12-22T11:19:03.507Z,1003.34
2018-12-22T11:20:03.529Z,1003.31
2018-12-22T11:21:03.553Z,1003.30
2018-12-22T11:22:03.578Z,1003.27
2018-12-22T11:23:03.598Z,1003.29
2018-12-22T11:24:03.619Z,1003.32
2018-12-22T11:25:03.643Z,1003.25
2018-12-22T11:26:03.666Z,1003.28
2018-12-22T11:27:03.688Z,1003.28
2018-12-22T11:28:03.709Z,1003.29
2018-12-22T11:29:03.736Z,1003.26
2018-12-22T11:30:03.760Z,1003.28
2018-12-22T11:31:03.777Z,1003.30
2018-12-22T11:32:03.801Z,1003.32
2018-12-22T11:33:03.824Z,1003.28
2018-12-22T11:34:03.848Z,1003.29
2018-12-22T11:35:03.870Z,1003.26
2018-12-22T11:36:03.892Z,1003.27
2018-12-22T11:37:03.922Z,1003.22
2018-12-22T11:38:03.938Z,1003.26
2018-12-22T11:39:03.961Z,1003.23
2018-12-22T11:40:03.986Z,1003.25
2018-12-22T11:41:04.008Z,1003.20
2018-12-22T11:42:04.031Z,1003.19
2018-12-22T11:43:04.057Z,1003.23
2018-12-22T11:44:04.076Z,1003.23
2018-12-22T11:45:04.100Z,1003.18
2018-12-22T11:46:04.122Z,1003.17
2018-12-22T11:47:04.146Z,1003.25
2018-12-22T11:48:04.167Z,1003.28
2018-12-22T11:49:04.189Z,1003.26
2018-12-22T11:50:04.212Z,1003.23
2018-12-22T11:51:04.235Z,1003.24
2018-12-22T11:52:04.258Z,1003.25
2018-12-22T11:53:04.285Z,1003.27
2018-12-22T11:54:04.304Z,1003.30
2018-12-22T11:55:04.326Z,1003.30
2018-12-22T11:56:04.350Z,1003.32
2018-12-22T11:57:04.373Z,1003.29
2018-12-22T11:58:04.397Z,1003.32
2018-12-22T11:59:04.418Z,1003.31
2018-12-22T12:00:04.443Z,1003.25
2018-12-22T12:01:04.463Z,1003.26
2018-12-22T12:02:09.582Z,1003.28
2018-12-22T12:03:04.508Z,1003.29
2018-12-22T12:04:04.533Z,1003.26
2018-12-22T12:05:04.556Z,1003.29
2018-12-22T12:06:04.577Z,1003.23